createdAt,value
2018-09-04T00:00:12.156Z,19.80
2018-09-04T00:02:44.255Z,19.80
2018-09-04T00:05:15.447Z,19.90
2018-09-04T00:07:46.804Z,19.80
2018-09-04T00:10:18.818Z,19.60
2018-09-04T00:12:50.204Z,19.50
2018-09-04T00:15:21.412Z,19.50
2018-09-04T00:17:53.018Z,19.70
2018-09-04T00:20:24.330Z,19.70
2018-09-04T00:22:55.826Z,19.60
2018-09-04T00:25:27.725Z,19.60
2018-09-04T00:27:59.116Z,19.40
2018-09-04T00:30:30.584Z,19.50
2018-09-04T00:33:01.839Z,19.50
2018-09-04T00:35:33.370Z,19.60
2018-09-04T00:38:04.683Z,19.60
2018-09-04T00:40:36.540Z,19.80
2018-09-04T00:43:07.819Z,19.70
2018-09-04T00:45:39.186Z,19.50
2018-09-04T00:48:10.422Z,19.50
2018-09-04T00:50:41.771Z,19.40
2018-09-04T00:53:12.955Z,19.30
2018-09-04T00:55:44.173Z,19.50
2018-09-04T00:58:15.200Z,19.60
2018-09-04T01:00:46.718Z,19.50
2018-09-04T01:03:18.188Z,19.50
2018-09-04T01:05:49.552Z,19.40
2018-09-04T01:08:20.925Z,19.20
2018-09-04T01:10:52.324Z,19.30
2018-09-04T01:13:23.984Z,19.40
2018-09-04T01:15:55.155Z,19.40
2018-09-04T01:18:26.398Z,19.30
2018-09-04T01:20:57.465Z,19.20
2018-09-04T01:23:28.636Z,19.00
2018-09-04T01:25:59.856Z,19.00
2018-09-04T01:28:30.888Z,19.00
2018-09-04T01:31:02.298Z,19.00
2018-09-04T01:33:33.941Z,18.90
2018-09-04T01:36:05.188Z,18.80
2018-09-04T01:38:36.544Z,18.80
2018-09-04T01:41:07.648Z,18.80
2018-09-04T01:43:39.019Z,18.90
2018-09-04T01:46:10.173Z,19.10
2018-09-04T01:48:41.367Z,19.00
2018-09-04T01:51:12.724Z,18.90
2018-09-04T01:53:44.311Z,18.80
2018-09-04T01:56:15.524Z,18.80
2018-09-04T01:58:46.519Z,19.00
2018-09-04T02:01:18.992Z,19.10
2018-09-04T02:03:50.334Z,19.00
2018-09-04T02:06:21.711Z,18.90
2018-09-04T02:08:52.836Z,18.90
2018-09-04T02:11:23.869Z,18.80
2018-09-04T02:13:55.022Z,18.70
2018-09-04T02:16:26.362Z,18.70
2018-09-04T02:18:57.443Z,18.70
2018-09-04T02:21:28.795Z,18.60
2018-09-04T02:24:00.192Z,18.60
2018-09-04T02:26:31.436Z,18.70
2018-09-04T02:29:02.755Z,18.70
2018-09-04T02:31:33.944Z,18.60
2018-09-04T02:34:05.385Z,18.60
2018-09-04T02:36:36.788Z,18.50
2018-09-04T02:39:11.255Z,18.50
2018-09-04T02:41:42.354Z,18.50
2018-09-04T02:44:13.502Z,18.50
2018-09-04T02:46:44.664Z,18.50
2018-09-04T02:49:16.724Z,18.50
2018-09-04T02:51:47.843Z,18.60
2018-09-04T02:54:19.002Z,18.50
2018-09-04T02:56:50.240Z,18.60
2018-09-04T02:59:21.635Z,18.60
2018-09-04T03:01:52.894Z,18.60
2018-09-04T03:04:24.144Z,18.60
2018-09-04T03:06:55.648Z,18.60
2018-09-04T03:09:26.948Z,18.60
2018-09-04T03:11:58.149Z,18.70
2018-09-04T03:14:29.503Z,18.70
2018-09-04T03:17:01.241Z,18.70
2018-09-04T03:19:32.783Z,18.80
2018-09-04T03:22:04.100Z,18.60
2018-09-04T03:24:35.583Z,18.70
2018-09-04T03:27:06.732Z,18.60
2018-09-04T03:29:38.346Z,18.50
2018-09-04T03:32:09.887Z,18.60
2018-09-04T03:34:41.083Z,18.70
2018-09-04T03:37:12.712Z,18.70
2018-09-04T03:39:44.048Z,18.80
2018-09-04T03:42:15.191Z,18.80
2018-09-04T03:44:46.379Z,18.80
2018-09-04T03:47:17.584Z,18.60
2018-09-04T03:49:48.570Z,18.70
2018-09-04T03:52:19.767Z,18.60
2018-09-04T03:54:50.957Z,18.60
2018-09-04T03:57:22.123Z,18.60
2018-09-04T03:59:53.363Z,18.70
2018-09-04T04:02:25.104Z,18.70
2018-09-04T04:04:56.403Z,18.50
2018-09-04T04:07:28.376Z,18.60
2018-09-04T04:09:59.684Z,18.70
2018-09-04T04:12:31.079Z,18.60
2018-09-04T04:15:02.197Z,18.60
2018-09-04T04:17:33.559Z,18.50
2018-09-04T04:20:05.055Z,18.40
2018-09-04T04:22:36.269Z,18.30
2018-09-04T04:25:07.602Z,18.30
2018-09-04T04:27:39.065Z,18.30
2018-09-04T04:30:10.376Z,18.30
2018-09-04T04:32:41.700Z,18.20
2018-09-04T04:35:13.076Z,18.20
2018-09-04T04:37:44.358Z,18.20
2018-09-04T04:40:15.543Z,18.30
2018-09-04T04:42:46.735Z,18.40
2018-09-04T04:45:17.968Z,18.40
2018-09-04T04:47:49.784Z,18.30
2018-09-04T04:50:20.912Z,18.30
2018-09-04T04:52:52.096Z,18.20
2018-09-04T04:55:24.115Z,18.20
2018-09-04T04:57:55.515Z,18.30
2018-09-04T05:00:26.681Z,18.30
2018-09-04T05:02:57.870Z,18.20
2018-09-04T05:05:28.839Z,18.40
2018-09-04T05:07:59.877Z,18.40
2018-09-04T05:10:31.215Z,18.30
2018-09-04T05:13:02.570Z,18.20
2018-09-04T05:15:33.627Z,18.30
2018-09-04T05:18:04.824Z,18.50
2018-09-04T05:20:36.710Z,18.40
2018-09-04T05:23:08.475Z,18.30
2018-09-04T05:25:39.651Z,18.40
2018-09-04T05:28:10.935Z,18.40
2018-09-04T05:30:42.172Z,18.40
2018-09-04T05:33:18.476Z,18.60
2018-09-04T05:35:52.594Z,18.80
2018-09-04T05:38:23.783Z,18.80
2018-09-04T05:40:54.983Z,18.80
2018-09-04T05:43:30.269Z,18.80
2018-09-04T05:46:04.404Z,18.90
2018-09-04T05:48:35.759Z,18.80
2018-09-04T05:51:06.833Z,18.60
2018-09-04T05:53:38.308Z,18.50
2018-09-04T05:56:09.766Z,18.40
2018-09-04T05:58:40.981Z,18.50
2018-09-04T06:01:12.336Z,18.50
2018-09-04T06:03:43.545Z,18.50
2018-09-04T06:06:14.735Z,18.60
2018-09-04T06:08:45.963Z,18.60
2018-09-04T06:11:17.218Z,18.50
2018-09-04T06:13:48.927Z,18.50
2018-09-04T06:16:19.918Z,18.70
2018-09-04T06:18:51.119Z,18.70
2018-09-04T06:21:22.711Z,18.90
2018-09-04T06:23:53.854Z,18.80
2018-09-04T06:26:25.407Z,18.80
2018-09-04T06:28:57.063Z,18.90
2018-09-04T06:31:29.182Z,18.80
2018-09-04T06:34:00.560Z,18.70
2018-09-04T06:36:31.708Z,18.90
2018-09-04T06:39:03.023Z,19.00
2018-09-04T06:41:34.388Z,19.00
2018-09-04T06:44:05.531Z,19.20
2018-09-04T06:46:36.835Z,19.30
2018-09-04T06:49:08.175Z,19.40
2018-09-04T06:51:39.206Z,19.40
2018-09-04T06:54:10.356Z,19.50
2018-09-04T06:56:41.559Z,19.50
2018-09-04T06:59:12.735Z,19.50
2018-09-04T07:01:44.155Z,19.60
2018-09-04T07:04:15.542Z,19.60
2018-09-04T07:06:46.935Z,19.70
2018-09-04T07:09:18.291Z,20.00
2018-09-04T07:11:49.490Z,20.10
2018-09-04T07:14:21.140Z,20.10
2018-09-04T07:16:53.067Z,20.20
2018-09-04T07:19:24.420Z,20.10
2018-09-04T07:21:55.597Z,20.10
2018-09-04T07:24:26.810Z,20.00
2018-09-04T07:26:57.984Z,20.10
2018-09-04T07:29:29.397Z,20.20
2018-09-04T07:32:00.443Z,20.30
2018-09-04T07:34:31.623Z,20.30
2018-09-04T07:37:02.973Z,20.20
2018-09-04T07:39:34.348Z,20.20
2018-09-04T07:42:05.781Z,20.30
2018-09-04T07:44:37.362Z,20.30
2018-09-04T07:47:08.591Z,20.30
2018-09-04T07:49:39.926Z,20.30
2018-09-04T07:52:11.117Z,20.40
2018-09-04T07:54:42.524Z,20.30
2018-09-04T07:57:13.667Z,20.30
2018-09-04T07:59:44.875Z,20.30
2018-09-04T08:02:16.099Z,20.20
2018-09-04T08:04:47.361Z,20.30
2018-09-04T08:07:18.650Z,20.50
2018-09-04T08:09:50.167Z,20.90
2018-09-04T08:12:21.255Z,21.20
2018-09-04T08:14:53.020Z,21.30
2018-09-04T08:17:24.515Z,21.40
2018-09-04T08:19:55.600Z,21.60
2018-09-04T08:22:26.964Z,21.60
2018-09-04T08:24:58.160Z,21.80
2018-09-04T08:27:29.643Z,22.20
2018-09-04T08:30:00.960Z,22.30
2018-09-04T08:32:32.242Z,22.30
2018-09-04T08:35:03.332Z,22.70
2018-09-04T08:37:34.508Z,22.70
2018-09-04T08:40:05.704Z,23.00
2018-09-04T08:42:37.029Z,23.00
2018-09-04T08:45:08.396Z,22.90
2018-09-04T08:47:39.479Z,23.10
2018-09-04T08:50:10.660Z,23.10
2018-09-04T08:52:41.671Z,23.40
2018-09-04T08:55:13.234Z,23.20
2018-09-04T08:57:45.323Z,23.20
2018-09-04T09:00:16.795Z,23.50
2018-09-04T09:02:48.026Z,23.40
2018-09-04T09:05:19.192Z,23.60
2018-09-04T09:07:50.228Z,23.70
2018-09-04T09:10:21.667Z,23.90
2018-09-04T09:12:52.968Z,24.20
2018-09-04T09:15:24.198Z,24.40
2018-09-04T09:17:55.562Z,24.50
2018-09-04T09:20:26.587Z,25.60
2018-09-04T09:22:57.948Z,25.50
2018-09-04T09:25:29.131Z,25.50
2018-09-04T09:28:00.494Z,25.50
2018-09-04T09:30:31.524Z,24.60
2018-09-04T09:33:02.887Z,24.20
2018-09-04T09:35:34.115Z,24.20
2018-09-04T09:38:05.571Z,24.20
2018-09-04T09:40:37.018Z,24.50
2018-09-04T09:43:08.445Z,24.90
2018-09-04T09:45:39.616Z,25.70
2018-09-04T09:48:10.723Z,26.10
2018-09-04T09:50:41.928Z,25.50
2018-09-04T09:53:12.926Z,25.90
2018-09-04T09:55:44.039Z,26.10
2018-09-04T09:58:15.444Z,26.00
2018-09-04T10:00:51.441Z,26.90
2018-09-04T10:03:28.057Z,27.40
2018-09-04T10:05:59.433Z,27.00
2018-09-04T10:08:30.828Z,27.40
2018-09-04T10:11:02.430Z,27.30
2018-09-04T10:13:33.777Z,28.40
2018-09-04T10:16:05.494Z,28.70
2018-09-04T10:18:36.744Z,27.60
2018-09-04T10:21:07.940Z,27.30
2018-09-04T10:23:39.612Z,28.30
2018-09-04T10:26:10.888Z,28.30
2018-09-04T10:28:41.930Z,27.80
2018-09-04T10:31:13.116Z,27.70
2018-09-04T10:33:44.535Z,27.70
2018-09-04T10:36:15.738Z,28.30
2018-09-04T10:38:46.853Z,28.70
2018-09-04T10:41:18.064Z,28.60
2018-09-04T10:43:49.721Z,28.50
2018-09-04T10:46:21.105Z,29.80
2018-09-04T10:48:52.458Z,29.80
2018-09-04T10:51:23.683Z,29.80
2018-09-04T10:53:55.269Z,31.10
2018-09-04T10:56:26.757Z,31.00
2018-09-04T10:58:57.766Z,30.40
2018-09-04T11:01:28.956Z,30.10
2018-09-04T11:04:00.240Z,30.20
2018-09-04T11:06:31.550Z,30.40
2018-09-04T11:09:03.110Z,29.50
2018-09-04T11:11:34.304Z,29.30
2018-09-04T11:14:05.533Z,29.70
2018-09-04T11:16:36.739Z,30.30
2018-09-04T11:19:08.231Z,30.90
2018-09-04T11:21:39.476Z,30.70
2018-09-04T11:24:10.895Z,30.70
2018-09-04T11:26:42.268Z,31.00
2018-09-04T11:29:14.775Z,31.10
2018-09-04T11:31:46.000Z,29.50
2018-09-04T11:34:17.807Z,29.20
2018-09-04T11:36:49.227Z,29.10
2018-09-04T11:39:20.555Z,28.90
2018-09-04T11:41:51.607Z,29.60
2018-09-04T11:44:23.048Z,30.90
2018-09-04T11:46:54.631Z,30.70
2018-09-04T11:49:25.921Z,30.30
2018-09-04T11:51:56.918Z,31.20
2018-09-04T11:54:28.171Z,30.80
2018-09-04T11:56:59.563Z,30.40
2018-09-04T11:59:35.248Z,31.10
2018-09-04T12:02:08.112Z,31.40
2018-09-04T12:04:39.679Z,30.80
2018-09-04T12:07:11.809Z,30.50
2018-09-04T12:09:43.159Z,30.40
2018-09-04T12:12:19.485Z,30.70
2018-09-04T12:14:51.220Z,30.60
2018-09-04T12:17:22.582Z,30.00
2018-09-04T12:21:03.472Z,30.20
2018-09-04T12:23:34.556Z,30.00
2018-09-04T12:26:06.728Z,30.00
2018-09-04T12:28:38.010Z,31.90
2018-09-04T12:31:09.793Z,31.70
2018-09-04T12:33:40.934Z,30.80
2018-09-04T12:36:12.331Z,31.20
2018-09-04T12:38:44.182Z,31.10
2018-09-04T12:41:16.985Z,30.60
2018-09-04T12:43:48.046Z,30.40
2018-09-04T12:46:19.257Z,30.30
2018-09-04T12:48:51.743Z,30.80
2018-09-04T12:51:23.291Z,30.60
2018-09-04T12:53:54.573Z,31.20
2018-09-04T12:56:25.783Z,30.70
2018-09-04T12:58:57.439Z,30.70
2018-09-04T13:01:28.740Z,31.40
2018-09-04T13:03:59.759Z,31.30
2018-09-04T13:06:31.023Z,31.10
2018-09-04T13:09:02.364Z,30.70
2018-09-04T13:11:33.976Z,31.40
2018-09-04T13:14:06.288Z,31.60
2018-09-04T13:16:37.594Z,31.70
2018-09-04T13:19:09.151Z,31.90
2018-09-04T13:21:40.345Z,32.10
2018-09-04T13:24:11.737Z,32.70
2018-09-04T13:26:43.029Z,33.00
2018-09-04T13:29:14.192Z,32.60
2018-09-04T13:31:45.415Z,32.90
2018-09-04T13:34:17.454Z,32.90
2018-09-04T13:36:48.833Z,32.60
2018-09-04T13:39:20.147Z,31.80
2018-09-04T13:41:51.224Z,31.10
2018-09-04T13:44:22.619Z,31.40
2018-09-04T13:46:53.935Z,31.60
2018-09-04T13:49:25.064Z,31.40
2018-09-04T13:51:56.209Z,31.30
2018-09-04T13:54:27.352Z,31.20
2018-09-04T13:56:58.579Z,32.40
2018-09-04T13:59:29.640Z,32.80
2018-09-04T14:02:00.892Z,31.60
2018-09-04T14:04:31.966Z,30.80
2018-09-04T14:07:03.137Z,30.30
2018-09-04T14:09:34.285Z,30.20
2018-09-04T14:12:05.784Z,30.10
2018-09-04T14:14:37.435Z,30.90
2018-09-04T14:17:14.680Z,30.80
2018-09-04T14:19:45.861Z,30.80
2018-09-04T14:22:17.579Z,30.60
2018-09-04T14:24:48.869Z,30.60
2018-09-04T14:27:20.176Z,30.90
2018-09-04T14:29:53.963Z,30.50
2018-09-04T14:32:24.429Z,30.80
2018-09-04T14:34:55.435Z,30.40
2018-09-04T14:37:26.496Z,30.30
2018-09-04T14:39:57.831Z,30.60
2018-09-04T14:42:29.124Z,30.30
2018-09-04T14:45:00.239Z,30.00
2018-09-04T14:47:31.570Z,29.90
2018-09-04T14:50:02.768Z,30.30
2018-09-04T14:52:34.423Z,29.80
2018-09-04T14:55:06.041Z,29.90
2018-09-04T14:57:37.112Z,30.50
2018-09-04T15:00:09.168Z,31.00
2018-09-04T15:02:40.496Z,31.10
2018-09-04T15:05:11.555Z,30.40
2018-09-04T15:07:43.025Z,30.50
2018-09-04T15:10:14.132Z,30.00
2018-09-04T15:12:45.533Z,29.90
2018-09-04T15:15:17.140Z,30.10
2018-09-04T15:17:48.486Z,30.20
2018-09-04T15:20:19.871Z,29.90
2018-09-04T15:22:51.146Z,29.50
2018-09-04T15:25:22.287Z,29.50
2018-09-04T15:27:53.413Z,29.50
2018-09-04T15:30:24.780Z,29.80
2018-09-04T15:32:55.798Z,29.50
2018-09-04T15:35:26.973Z,29.60
2018-09-04T15:37:58.392Z,29.60
2018-09-04T15:40:29.541Z,30.00
2018-09-04T15:43:00.746Z,29.70
2018-09-04T15:45:31.893Z,29.70
2018-09-04T15:48:02.945Z,29.90
2018-09-04T15:50:34.122Z,29.80
2018-09-04T15:53:05.324Z,29.40
2018-09-04T15:55:36.710Z,29.40
2018-09-04T15:58:08.056Z,29.60
2018-09-04T16:00:39.616Z,29.50
2018-09-04T16:03:11.131Z,29.60
2018-09-04T16:05:42.274Z,29.70
2018-09-04T16:08:13.515Z,29.60
2018-09-04T16:10:45.114Z,29.50
2018-09-04T16:13:16.219Z,29.40
2018-09-04T16:15:47.399Z,29.60
2018-09-04T16:18:18.436Z,29.80
2018-09-04T16:20:49.603Z,29.50
2018-09-04T16:23:21.106Z,29.60
2018-09-04T16:25:52.448Z,29.40
2018-09-04T16:28:23.732Z,29.30
2018-09-04T16:30:54.979Z,29.30
2018-09-04T16:33:26.152Z,29.20
2018-09-04T16:35:57.337Z,29.40
2018-09-04T16:38:28.358Z,29.30
2018-09-04T16:40:59.822Z,29.30
2018-09-04T16:43:31.416Z,29.20
2018-09-04T16:46:02.733Z,29.30
2018-09-04T16:48:33.960Z,29.20
2018-09-04T16:51:05.071Z,29.10
2018-09-04T16:53:37.121Z,29.10
2018-09-04T16:56:09.212Z,29.10
2018-09-04T16:58:40.425Z,28.90
2018-09-04T17:01:11.641Z,28.80
2018-09-04T17:03:43.023Z,28.70
2018-09-04T17:06:14.427Z,28.90
2018-09-04T17:08:45.619Z,28.90
2018-09-04T17:11:16.785Z,28.80
2018-09-04T17:13:47.993Z,28.60
2018-09-04T17:16:19.375Z,28.60
2018-09-04T17:18:50.759Z,28.60
2018-09-04T17:21:22.019Z,28.60
2018-09-04T17:23:53.312Z,28.60
2018-09-04T17:26:24.351Z,28.60
2018-09-04T17:28:55.710Z,28.50
2018-09-04T17:31:26.942Z,28.30
2018-09-04T17:33:58.392Z,28.10
2018-09-04T17:36:29.502Z,27.90
2018-09-04T17:39:01.709Z,28.00
2018-09-04T17:41:33.080Z,27.90
2018-09-04T17:44:04.065Z,27.80
2018-09-04T17:46:35.256Z,27.60
2018-09-04T17:49:06.489Z,27.60
2018-09-04T17:51:37.972Z,27.60
2018-09-04T17:54:09.040Z,27.50
2018-09-04T17:56:40.550Z,27.40
2018-09-04T17:59:11.784Z,27.40
2018-09-04T18:01:43.676Z,27.30
2018-09-04T18:04:14.848Z,27.10
2018-09-04T18:06:46.166Z,27.10
2018-09-04T18:09:17.507Z,27.00
2018-09-04T18:11:48.729Z,26.80
2018-09-04T18:14:20.385Z,26.80
2018-09-04T18:16:51.701Z,26.70
2018-09-04T18:19:23.295Z,26.60
2018-09-04T18:21:54.584Z,26.60
2018-09-04T18:24:25.805Z,26.50
2018-09-04T18:26:57.400Z,26.40
2018-09-04T18:29:28.631Z,26.40
2018-09-04T18:31:59.646Z,26.40
2018-09-04T18:34:31.166Z,26.20
2018-09-04T18:37:02.392Z,26.10
2018-09-04T18:39:33.793Z,26.00
2018-09-04T18:42:04.944Z,25.90
2018-09-04T18:44:36.160Z,25.80
2018-09-04T18:47:07.611Z,25.70
2018-09-04T18:49:38.961Z,25.50
2018-09-04T18:52:10.146Z,25.30
2018-09-04T18:54:41.316Z,25.40
2018-09-04T18:57:12.520Z,25.50
2018-09-04T18:59:43.810Z,25.50
2018-09-04T19:02:15.350Z,25.50
2018-09-04T19:04:46.814Z,25.40
2018-09-04T19:07:17.894Z,25.50
2018-09-04T19:09:49.968Z,25.50
2018-09-04T19:12:21.067Z,25.40
2018-09-04T19:14:52.459Z,25.00
2018-09-04T19:17:24.312Z,24.90
2018-09-04T19:19:55.785Z,24.90
2018-09-04T19:22:27.015Z,24.70
2018-09-04T19:24:58.663Z,24.60
2018-09-04T19:27:30.292Z,24.70
2018-09-04T19:30:01.742Z,24.60
2018-09-04T19:32:32.968Z,24.70
2018-09-04T19:35:04.532Z,24.70
2018-09-04T19:37:35.572Z,24.60
2018-09-04T19:40:07.539Z,24.60
2018-09-04T19:42:39.620Z,24.60
2018-09-04T19:45:11.196Z,24.70
2018-09-04T19:47:42.237Z,24.60
2018-09-04T19:50:14.577Z,24.50
2018-09-04T19:52:45.823Z,24.40
2018-09-04T19:55:17.056Z,24.40
2018-09-04T19:57:48.228Z,24.60
2018-09-04T20:00:19.597Z,24.60
2018-09-04T20:02:50.943Z,24.50
2018-09-04T20:05:22.167Z,24.60
2018-09-04T20:07:53.184Z,24.70
2018-09-04T20:10:24.564Z,24.70
2018-09-04T20:12:56.093Z,24.60
2018-09-04T20:15:27.400Z,24.60
2018-09-04T20:17:58.761Z,24.50
2018-09-04T20:20:30.252Z,24.50
2018-09-04T20:23:01.633Z,24.50
2018-09-04T20:25:33.730Z,24.30
2018-09-04T20:28:06.782Z,24.40
2018-09-04T20:30:40.992Z,24.30
2018-09-04T20:33:12.167Z,24.20
2018-09-04T20:35:43.360Z,24.00
2018-09-04T20:38:14.812Z,24.00
2018-09-04T20:40:46.125Z,24.00
2018-09-04T20:43:17.149Z,24.10
2018-09-04T20:45:48.432Z,24.10
2018-09-04T20:48:19.955Z,24.00
2018-09-04T20:50:51.757Z,24.00
2018-09-04T20:53:22.903Z,23.70
2018-09-04T20:55:55.211Z,23.50
2018-09-04T20:58:42.615Z,23.50
2018-09-04T21:01:30.064Z,23.30
2018-09-04T21:04:17.577Z,23.30
2018-09-04T21:06:50.241Z,23.40
2018-09-04T21:09:44.598Z,23.40
2018-09-04T21:12:15.700Z,23.40
2018-09-04T21:14:47.731Z,23.20
2018-09-04T21:17:19.552Z,23.00
2018-09-04T21:19:51.030Z,22.90
2018-09-04T21:22:22.912Z,23.00
2018-09-04T21:24:54.250Z,23.10
2018-09-04T21:27:25.916Z,23.00
2018-09-04T21:29:57.112Z,23.20
2018-09-04T21:32:28.488Z,23.10
2018-09-04T21:34:59.979Z,22.90
2018-09-04T21:37:31.313Z,22.70
2018-09-04T21:40:02.600Z,22.60
2018-09-04T21:42:34.821Z,22.60
2018-09-04T21:45:06.335Z,22.60
2018-09-04T21:47:38.470Z,22.60
2018-09-04T21:50:10.511Z,22.40
2018-09-04T21:52:41.865Z,22.40
2018-09-04T21:55:12.903Z,22.40
2018-09-04T21:57:44.344Z,22.30
2018-09-04T22:00:19.965Z,22.40
2018-09-04T22:02:50.977Z,22.40
2018-09-04T22:05:22.324Z,22.40
2018-09-04T22:07:53.854Z,22.50
2018-09-04T22:10:25.596Z,22.40
2018-09-04T22:12:57.668Z,22.30
2018-09-04T22:15:29.116Z,22.30
2018-09-04T22:18:00.299Z,22.40
2018-09-04T22:20:31.664Z,22.40
2018-09-04T22:23:03.123Z,22.40
2018-09-04T22:25:34.448Z,22.50
2018-09-04T22:28:05.924Z,22.30
2018-09-04T22:30:37.515Z,22.10
2018-09-04T22:33:08.880Z,22.20
2018-09-04T22:35:39.979Z,22.00
2018-09-04T22:38:11.688Z,22.10
2018-09-04T22:40:42.956Z,22.10
2018-09-04T22:43:13.995Z,22.10
2018-09-04T22:45:45.213Z,22.20
2018-09-04T22:48:16.504Z,22.10
2018-09-04T22:50:52.607Z,22.10
2018-09-04T22:53:23.859Z,21.80
2018-09-04T22:55:55.250Z,21.70
2018-09-04T22:58:26.502Z,21.80
2018-09-04T23:00:57.797Z,22.00
2018-09-04T23:03:28.991Z,22.00
2018-09-04T23:06:00.201Z,22.00
2018-09-04T23:08:31.646Z,21.90
2018-09-04T23:11:03.116Z,21.80
2018-09-04T23:13:35.366Z,21.90
2018-09-04T23:16:06.855Z,22.00
2018-09-04T23:18:38.021Z,21.90
2018-09-04T23:21:09.139Z,21.90
2018-09-04T23:23:40.314Z,21.90
2018-09-04T23:26:11.670Z,21.70
2018-09-04T23:28:42.743Z,21.50
2018-09-04T23:31:13.881Z,21.40
2018-09-04T23:33:45.334Z,21.50
2018-09-04T23:36:16.634Z,21.50
2018-09-04T23:38:48.043Z,21.40
2018-09-04T23:41:19.544Z,21.40
2018-09-04T23:43:50.787Z,21.60
2018-09-04T23:46:21.835Z,21.40
2018-09-04T23:48:53.472Z,21.30
2018-09-04T23:51:24.766Z,21.30
2018-09-04T23:53:55.964Z,21.20
2018-09-04T23:56:27.819Z,21.00
2018-09-04T23:58:59.220Z,21.00
